< < Back
Terminal Aerodrome Forecast


Current Version              Previous Versions:   1  2  3  4  5  6  7  8  9  

Terminal Aerodrome Forecast

717
FTUS42 KJAX 200900 AAB
TAFGNV
TAF AMD
KGNV 200943Z 2010/2106 VRB03KT 5SM BR VCSH SCT004 OVC015
      TEMPO 2010/2013 2SM BR BKN001 OVC004
     FM201300 04005KT P6SM VCSH OVC018
     FM202100 04006KT P6SM -SHRA OVC025
     FM210300 VRB02KT P6SM SCT030=



Latest METAR

033
SAUS70 KWBC 201000
MTRGNV
METAR KGNV 200953Z AUTO 34005KT 7SM BKN001 BKN028 OVC034 21/21 A2995 RMK
AO2 SLP139 T02110206


USA.gov is the U.S. government's official web portal to all federal, state and local government web resources and services.